EW0721 Weather Reports


time (UTC)temp
C
wind
direction
speed
KPH
gust
KPH
rain 1hr
cm
rain 24hr
cm
rain mn
cm
humidity
%
barometer
mb
20200606175506 24 268 6.4 11.3 0.00 0.00 0.00 54 1000.2
20200606175006 25 260 8.0 12.9 0.00 0.00 0.00 53 1000.2
20200606174505 25 267 8.0 12.9 0.00 0.00 0.00 53 1000.3
20200606172505 23 245 6.4 9.7 0.00 0.00 0.00 56 1000.2
20200606172006 23 255 6.4 8.0 0.00 0.00 0.00 57 1000.3
20200606171505 23 266 8.0 14.5 0.00 0.00 0.00 56 1000.2
20200606164505 25 253 11.3 17.7 0.00 0.00 0.00 50 1000.1
20200606164005 25 240 12.9 20.9 0.00 0.03 0.00 47 1000.1
20200606163006 27 235 16.1 24.1 0.00 0.03 0.00 43 1000.2
20200606161506 28 249 6.4 9.7 0.00 0.03 0.00 46 1000.0
20200606161005 27 236 6.4 8.0 0.00 0.03 0.00 47 1000.0
20200606155504 25 243 9.7 16.1 0.00 0.03 0.00 50 999.8
20200606155005 25 222 12.9 17.7 0.00 0.03 0.00 50 999.9
20200606154505 25 214 11.3 17.7 0.00 0.03 0.00 49 999.9
20200606153505 25 220 9.7 17.7 0.00 0.03 0.00 49 999.8
20200606152505 26 248 17.7 25.7 0.00 0.03 0.00 45 999.8
20200606151006 27 178 19.3 20.9 0.00 0.03 0.00 45 999.9
20200606150505 26 190 19.3 20.9 0.00 0.03 0.00 44 999.9
20200606145504 26 219 20.9 27.4 0.00 0.03 0.00 47 999.6
20200606145005 25 201 17.7 27.4 0.00 0.03 0.00 47 999.9
20200606144505 26 227 14.5 24.1 0.00 0.05 0.00 48 999.8
20200606144006 26 254 14.5 24.1 0.00 0.05 0.00 48 999.7
20200606141505 26 261 14.5 19.3 0.00 0.05 0.00 51 999.9
20200606141006 26 273 14.5 19.3 0.00 0.05 0.00 50 1000.0
20200606133505 25 248 16.1 25.7 0.00 0.05 0.00 52 1000.2
20200606132505 26 239 17.7 22.5 0.00 0.05 0.00 48 1000.1
20200606132005 26 228 14.5 17.7 0.00 0.05 0.00 48 1000.1
20200606131504 26 219 12.9 17.7 0.00 0.05 0.00 50 1000.0
20200606130504 25 223 16.1 20.9 0.00 0.05 0.00 50 1000.3
20200606130005 25 256 17.7 25.7 0.00 0.05 0.00 50 1000.3
20200606125505 25 263 17.7 25.7 0.00 0.05 0.00 50 1000.3
20200606125005 25 274 16.1 20.9 0.00 0.05 0.00 49 1000.3
20200606124005 25 244 17.7 22.5 0.00 0.05 0.00 50 1000.5
20200606123505 25 256 16.1 24.1 0.00 0.05 0.00 50 1000.4
20200606123006 25 259 16.1 24.1 0.00 0.05 0.00 51 1000.4
20200606122005 25 246 20.9 27.4 0.00 0.05 0.00 50 1000.5
20200606121505 25 223 17.7 27.4 0.00 0.05 0.00 49 1000.7
20200606120006 25 181 22.5 32.2 0.00 0.10 0.00 51 1000.7
20200606115505 25 167 20.9 32.2 0.00 0.15 0.00 53 1000.7
20200606114504 25 248 22.5 32.2 0.00 0.15 0.00 53 1000.5
20200606114006 24 242 22.5 32.2 0.00 0.18 0.00 51 1000.7
20200606113504 24 265 19.3 32.2 0.00 0.18 0.00 52 1000.7
20200606113006 24 277 20.9 29.0 0.00 0.18 0.00 54 1000.7
20200606112509 24 264 20.9 29.0 0.00 0.18 0.00 53 1000.7
20200606112005 24 245 17.7 25.7 0.00 0.18 0.00 54 1000.5
20200606111504 24 248 20.9 27.4 0.00 0.18 0.00 51 1000.7
20200606111006 24 252 25.7 27.4 0.00 0.18 0.00 54 1000.6
20200606105005 24 244 20.9 33.8 0.00 0.18 0.00 54 1000.5
20200606104504 24 240 17.7 24.1 0.00 0.18 0.00 54 1000.3
20200606104006 24 252 17.7 24.1 0.00 0.18 0.00 53 1000.4
20200606103020 23 232 25.7 33.8 0.00 0.18 0.00 55 1000.5
20200606101006 23 250 22.5 37.0 0.00 0.18 0.00 53 1000.7
20200606095505 23 186 22.5 27.4 0.00 0.18 0.00 56 1000.8
20200606095006 23 182 22.5 27.4 0.00 0.20 0.00 54 1000.8
20200606094504 23 173 19.3 30.6 0.00 0.20 0.00 57 1000.8
20200606093505 22 209 24.1 29.0 0.00 0.25 0.00 55 1000.6
20200606093006 22 197 25.7 32.2 0.00 0.25 0.00 56 1000.8
20200606092504 22 200 24.1 32.2 0.00 0.25 0.00 55 1000.6
20200606090505 22 227 17.7 25.7 0.00 0.33 0.00 60 1000.6
20200606090005 22 199 20.9 27.4 0.00 0.36 0.00 60 1000.6
20200606084504 21 215 22.5 30.6 0.00 0.43 0.00 57 1000.6
20200606083504 21 206 25.7 29.0 0.00 0.48 0.00 60 1000.6
20200606083005 21 228 27.4 33.8 0.00 0.48 0.00 59 1000.7
20200606081505 21 261 19.3 25.7 0.00 0.48 0.00 61 1000.5
20200606080005 20 229 25.7 37.0 0.00 0.48 0.00 63 1000.3
20200606075504 20 207 25.7 37.0 0.00 0.48 0.00 60 1000.3
20200606075005 20 213 24.1 30.6 0.00 0.48 0.00 62 1000.4
20200606073005 20 220 20.9 32.2 0.00 0.48 0.00 66 1000.2
20200606072504 20 222 20.9 32.2 0.00 0.48 0.00 66 1000.2
20200606071505 19 212 20.9 30.6 0.00 0.48 0.00 67 1000.1
20200606070005 19 260 17.7 27.4 0.00 0.48 0.00 70 1000.2
20200606065005 18 233 17.7 27.4 0.00 0.48 0.00 71 1000.2
20200606064005 18 224 16.1 20.9 0.00 0.51 0.00 72 1000.1
20200606063005 18 237 16.1 27.4 0.00 0.51 0.00 73 1000.2
20200606062005 17 236 14.5 20.9 0.00 0.51 0.00 77 1000.2
20200606061005 17 206 16.1 25.7 0.00 0.51 0.00 77 1000.0
20200606060504 17 172 16.1 22.5 0.00 0.51 0.00 79 999.9
20200606060005 17 189 17.7 22.5 0.00 0.51 0.00 79 999.9
20200606055005 17 214 19.3 29.0 0.00 0.51 0.00 78 999.7
20200606054504 17 221 17.7 29.0 0.00 0.51 0.00 77 999.8
20200606053505 17 199 12.9 22.5 0.00 0.51 0.00 79 999.7
20200606051504 14 313 11.3 16.1 0.00 0.51 0.00 93 999.7
20200606051004 14 225 11.3 16.1 0.00 0.51 0.00 93 999.5
20200606050504 13 222 14.5 17.7 0.00 0.51 0.00 94 999.5
20200606045504 13 184 17.7 20.9 0.00 0.51 0.00 96 999.3
20200606045006 13 175 19.3 25.7 0.00 0.51 0.00 96 999.1
20200606044504 13 185 19.3 25.7 0.00 0.51 0.00 97 999.0
20200606043504 13 187 17.7 20.9 0.00 0.51 0.00 98 998.7
20200606043005 12 210 16.1 22.5 0.00 0.51 0.00 99 998.7
20200606041504 12 202 19.3 24.1 0.00 0.51 0.00 99 999.2
20200606040504 12 281 12.9 20.9 0.00 0.51 0.00 99 999.4
20200606035504 12 235 11.3 17.7 0.00 0.51 0.00 99 999.3
20200606034506 11 191 11.3 16.1 0.00 0.51 0.00 99 999.1
20200606033504 11 188 12.9 16.1 0.00 0.51 0.00 99 998.9
20200606033004 11 189 12.9 16.1 0.00 0.51 0.00 99 998.9
20200606032504 11 187 12.9 16.1 0.00 0.51 0.00 99 998.7
20200606032005 11 198 9.7 14.5 0.00 0.51 0.00 99 998.6
20200606031005 11 229 11.3 14.5 0.00 0.51 0.00 99 998.5
20200606030005 11 196 11.3 17.7 0.00 0.51 0.00 99 998.4
20200606025504 11 196 11.3 17.7 0.00 0.51 0.00 99 998.5
20200606025005 11 209 11.3 12.9 0.00 0.51 0.00 99 998.4
20200606023005 11 199 9.7 22.5 0.00 0.51 0.00 99 998.3
20200606022505 11 207 9.7 16.1 0.00 0.51 0.00 99 998.2
20200606021504 11 200 12.9 17.7 0.00 0.53 0.00 99 998.2
20200606020005 11 189 14.5 17.7 0.00 0.58 0.00 99 998.3
20200606015004 11 189 14.5 20.9 0.00 0.58 0.00 99 998.1
20200606014504 11 204 11.3 16.1 0.00 0.58 0.00 99 998.2
20200606014005 11 202 12.9 16.1 0.00 0.58 0.00 99 998.1
20200606013503 11 195 14.5 17.7 0.00 0.58 0.00 99 998.1
20200606012504 11 204 17.7 27.4 0.00 0.58 0.00 99 998.0
20200606010504 12 187 11.3 12.9 0.00 0.58 0.00 99 997.9
20200606010004 12 194 12.9 16.1 0.00 0.58 0.00 99 997.8
20200606004505 12 217 12.9 24.1 0.00 0.58 0.00 99 997.7
20200606003504 12 215 17.7 20.9 0.00 0.58 0.00 99 997.8
20200606002504 12 228 12.9 19.3 0.00 0.58 0.00 99 997.6
20200606001504 12 241 14.5 19.3 0.00 0.58 0.00 99 997.7
20200606000504 12 201 16.1 24.1 0.00 0.58 0.00 99 997.3
20200606000005 12 208 16.1 24.1 0.00 0.58 0.00 99 997.2
20200605235005 12 202 16.1 24.1 0.00 0.58 0.00 99 997.2
20200605234005 12 198 14.5 17.7 0.00 0.58 0.00 99 997.0
20200605233505 11 208 12.9 17.7 0.00 0.58 0.00 99 997.0
20200605232504 11 206 11.3 16.1 0.00 0.58 0.00 99 996.7
20200605232004 11 192 9.7 12.9 0.00 0.58 0.00 99 996.7
20200605231011 11 175 9.7 11.3 0.00 0.58 0.00 99 996.6
20200605230503 11 187 9.7 12.9 0.00 0.58 0.00 99 996.5
20200605230005 11 187 11.3 12.9 0.00 0.58 0.00 99 996.6
20200605225504 11 186 11.3 16.1 0.00 0.58 0.00 99 996.6
20200605225005 11 184 11.3 16.1 0.00 0.58 0.00 99 996.5
20200605224503 11 187 11.3 16.1 0.00 0.58 0.00 99 996.4
20200605224005 11 187 11.3 16.1 0.00 0.58 0.00 99 996.4
20200605223504 11 184 14.5 17.7 0.00 0.58 0.00 99 996.2
20200605222504 11 194 12.9 16.1 0.00 0.58 0.00 99 996.3
20200605222005 12 182 12.9 16.1 0.00 0.58 0.00 99 996.2
20200605221005 12 182 11.3 14.5 0.00 0.58 0.00 99 996.2
20200605220504 12 181 11.3 14.5 0.00 0.58 0.00 99 996.2
20200605215503 12 189 11.3 12.9 0.00 0.58 0.58 99 996.1
20200605214504 12 189 16.1 22.5 0.00 0.58 0.58 99 995.8
20200605212504 12 199 17.7 22.5 0.00 0.58 0.58 99 995.7
20200605211004 12 177 16.1 20.9 0.00 0.58 0.58 99 995.7
20200605210005 12 193 14.5 17.7 0.00 0.58 0.58 99 995.8
20200605204504 12 186 11.3 14.5 0.00 0.58 0.58 99 995.6
20200605203504 12 189 9.7 12.9 0.00 0.58 0.58 99 995.6
20200605203004 12 186 9.7 12.9 0.00 0.58 0.58 99 995.6
20200605202505 12 203 11.3 12.9 0.00 0.58 0.58 99 995.4
20200605201505 12 205 9.7 12.9 0.00 0.58 0.58 99 995.5
20200605201004 12 199 9.7 11.3 0.00 0.58 0.58 99 995.4
20200605195504 12 187 11.3 12.9 0.00 0.74 0.58 99 995.4
20200605193504 13 176 9.7 14.5 0.00 0.74 0.58 99 995.3
20200605193005 13 189 8.0 12.9 0.00 0.74 0.58 99 995.3
20200605192004 13 178 9.7 12.9 0.00 0.74 0.58 99 995.2
20200605191504 13 179 11.3 16.1 0.00 0.74 0.58 99 995.1
20200605190504 13 201 9.7 14.5 0.00 0.74 0.58 99 994.9
20200605190004 13 189 11.3 16.1 0.00 0.74 0.58 99 994.7
20200605185504 13 186 12.9 16.1 0.00 0.74 0.58 99 994.6
20200605185006 13 196 12.9 16.1 0.00 0.74 0.58 99 994.7
20200605184006 13 195 9.7 16.1 0.00 0.74 0.58 99 994.5
20200605183506 14 185 9.7 16.1 0.00 0.74 0.58 99 994.5
20200605182005 14 185 8.0 8.0 0.00 0.74 0.58 99 994.5
20200605181006 14 186 9.7 12.9 0.00 0.74 0.58 99 994.4
20200605180006 14 211 8.0 12.9 0.00 0.74 0.58 99 994.3